Sk Audace — 3EKM6 — position and weather

sailwx.info

Track history (hours):
 
Tides and Currents Weather Stations Pressure Air Temp Water Temp Dewpoint Dewpoint Depression Visibility Wind Speed Wind Dir Waves Ship Positions

Sk Audace

Last reported at 2017-Dec-02 06:32 UTC. Time now 2017-Dec-13 09:25 UTC.
Position N 35°59' W 005°32'.
Warning: this ship's position is 11 days out of date.

Length 293 m; draft 9.6 m.

Type: Tanker. MMSI: 373808000.

Date/timePositionNaut miles runAvg speedWind from/ knotsBaromVisibWave heightAir tempDewpointWater temp
2017-Dec-02 06:32N 35°59' W 005°32'015.5
2017-Dec-02 06:30N 35°59' W 005°32'815.3
2017-Dec-02 06:00N 36°01' W 005°23'816.9
2017-Dec-02 05:31N 36°02' W 005°13'  
2017-Nov-30 00:46N 36°30' E 013°41'414.8
2017-Nov-30 00:30N 36°30' E 013°45'815.2
2017-Nov-30 00:00N 36°28' E 013°55'816.8
2017-Nov-29 23:30N 36°27' E 014°05'917.4
2017-Nov-29 23:00N 36°25' E 014°16'917.4
2017-Nov-29 22:30N 36°24' E 014°26'917.8
2017-Nov-29 21:59N 36°21' E 014°37'917.9
2017-Nov-29 21:30N 36°19' E 014°47'43217.8
2017-Nov-28 21:11N 36°32' E 023°44'318.8
2017-Nov-28 21:00N 36°35' E 023°47'1018.8
2017-Nov-28 20:30N 36°41' E 023°55'1118.7
2017-Nov-28 19:56N 36°49' E 024°04'818.7
2017-Nov-28 19:30N 36°54' E 024°12'918.9
2017-Nov-28 19:00N 36°58' E 024°22'918.9
2017-Nov-28 18:30N 37°03' E 024°33'1019.1
2017-Nov-28 18:00N 37°07' E 024°43'1019.1
2017-Nov-28 17:30N 37°12' E 024°54'918.6
2017-Nov-28 17:00N 37°16' E 025°05'919.1
2017-Nov-28 16:30N 37°17' E 025°16'1019.7
2017-Nov-28 16:00N 37°19' E 025°28'1717.1
2017-Nov-28 15:00N 37°33' E 025°41'919.0
2017-Nov-28 14:30N 37°43' E 025°41'918.5
2017-Nov-28 14:00N 37°52' E 025°41'918.9
2017-Nov-28 13:30N 38°01' E 025°41'918.6
2017-Nov-28 13:00N 38°11' E 025°41'10 0.2
2017-Nov-26 20:01N 38°01' E 025°42'116.4
2017-Nov-26 19:59N 38°01' E 025°42'1016.3
2017-Nov-26 19:22N 37°50' E 025°42'816.0
2017-Nov-26 18:52N 37°43' E 025°42'615.5
2017-Nov-26 18:30N 37°37' E 025°42'815.0
2017-Nov-26 18:00N 37°29' E 025°40'815.4
2017-Nov-26 17:30N 37°22' E 025°38'815.6
2017-Nov-26 17:00N 37°18' E 025°29'815.6
2017-Nov-26 16:30N 37°16' E 025°20'816.0
2017-Nov-26 16:00N 37°16' E 025°10'815.1
2017-Nov-26 15:30N 37°14' E 025°00'815.6
2017-Nov-26 15:00N 37°11' E 024°51'815.6
2017-Nov-26 14:30N 37°08' E 024°43'815.5
2017-Nov-26 14:00N 37°04' E 024°34'815.3
2017-Nov-26 13:31N 37°01' E 024°26'815.1
2017-Nov-26 13:00N 36°56' E 024°18'815.8
2017-Nov-26 12:30N 36°52' E 024°09'815.4
2017-Nov-26 12:00N 36°47' E 024°02'815.3
2017-Nov-26 11:31N 36°42' E 023°55'815.3
2017-Nov-26 11:00N 36°36' E 023°49'714.6
2017-Nov-26 10:30N 36°31' E 023°43'815.1
2017-Nov-26 10:00N 36°25' E 023°36'2515.2
2017-Nov-26 08:23N 36°08' E 023°15'42415.3
2017-Nov-25 04:36N 35°33' E 014°34'215.0
2017-Nov-25 04:29N 35°33' E 014°31'715.1
2017-Nov-25 04:00N 35°35' E 014°23'815.4
2017-Nov-25 03:30N 35°39' E 014°15'815.3
2017-Nov-25 03:00N 35°44' E 014°08'815.3
2017-Nov-25 02:30N 35°49' E 014°01'815.3
2017-Nov-25 02:00N 35°54' E 013°54'815.2
2017-Nov-25 01:30N 35°59' E 013°47'815.3
2017-Nov-25 01:00N 36°05' E 013°40'815.4
2017-Nov-25 00:30N 36°10' E 013°33'44615.0
2017-Nov-23 18:44N 37°33' E 004°25'415.7
2017-Nov-23 18:30N 37°33' E 004°21'815.5
2017-Nov-23 18:00N 37°33' E 004°11'815.6
2017-Nov-23 17:30N 37°33' E 004°01'1315.8
2017-Nov-23 16:42N 37°33' E 003°45'10317.4
2017-Nov-23 10:45N 37°26' E 001°35'1815.9
2017-Nov-23 09:36N 37°23' E 001°12'114.8
2017-Nov-23 09:30N 37°22' E 001°11'714.7
2017-Nov-23 09:00N 37°19' E 001°03'2014.0
2017-Nov-23 07:33N 37°09' E 000°40'213.2
2017-Nov-23 07:25N 37°08' E 000°38'613.4
2017-Nov-23 07:00N 37°05' E 000°32'715.2
2017-Nov-23 06:31N 37°02' E 000°24'1716.6
2017-Nov-23 05:29N 36°54' E 000°05'2516.5
2017-Nov-23 03:56N 36°43' W 000°24'716.5
2017-Nov-23 03:31N 36°39' W 000°31'  
Track history (hours):
 
Tides and Currents Weather Stations Pressure Air Temp Water Temp Dewpoint Dewpoint Depression Visibility Wind Speed Wind Dir Waves Ship Positions

Sk Audace

Last reported at 2017-Dec-02 06:32 UTC. Time now 2017-Dec-13 09:25 UTC.
Position N 35°59' W 005°32'.
Warning: this ship's position is 11 days out of date.

Length 293 m; draft 9.6 m.

Type: Tanker. MMSI: 373808000.

Date/timePositionNaut miles runAvg speedWind from/ knotsBaromVisibWave heightAir tempDewpointWater temp
2017-Dec-02 06:32N 35°59' W 005°32'015.5
2017-Dec-02 06:30N 35°59' W 005°32'815.3
2017-Dec-02 06:00N 36°01' W 005°23'816.9
2017-Dec-02 05:31N 36°02' W 005°13'  
2017-Nov-30 00:46N 36°30' E 013°41'414.8
2017-Nov-30 00:30N 36°30' E 013°45'815.2
2017-Nov-30 00:00N 36°28' E 013°55'816.8
2017-Nov-29 23:30N 36°27' E 014°05'917.4
2017-Nov-29 23:00N 36°25' E 014°16'917.4
2017-Nov-29 22:30N 36°24' E 014°26'917.8
2017-Nov-29 21:59N 36°21' E 014°37'917.9
2017-Nov-29 21:30N 36°19' E 014°47'43217.8
2017-Nov-28 21:11N 36°32' E 023°44'318.8
2017-Nov-28 21:00N 36°35' E 023°47'1018.8
2017-Nov-28 20:30N 36°41' E 023°55'1118.7
2017-Nov-28 19:56N 36°49' E 024°04'818.7
2017-Nov-28 19:30N 36°54' E 024°12'918.9
2017-Nov-28 19:00N 36°58' E 024°22'918.9
2017-Nov-28 18:30N 37°03' E 024°33'1019.1
2017-Nov-28 18:00N 37°07' E 024°43'1019.1
2017-Nov-28 17:30N 37°12' E 024°54'918.6
2017-Nov-28 17:00N 37°16' E 025°05'919.1
2017-Nov-28 16:30N 37°17' E 025°16'1019.7
2017-Nov-28 16:00N 37°19' E 025°28'1717.1
2017-Nov-28 15:00N 37°33' E 025°41'919.0
2017-Nov-28 14:30N 37°43' E 025°41'918.5
2017-Nov-28 14:00N 37°52' E 025°41'918.9
2017-Nov-28 13:30N 38°01' E 025°41'918.6
2017-Nov-28 13:00N 38°11' E 025°41'10 0.2
2017-Nov-26 20:01N 38°01' E 025°42'116.4
2017-Nov-26 19:59N 38°01' E 025°42'1016.3
2017-Nov-26 19:22N 37°50' E 025°42'816.0
2017-Nov-26 18:52N 37°43' E 025°42'615.5
2017-Nov-26 18:30N 37°37' E 025°42'815.0
2017-Nov-26 18:00N 37°29' E 025°40'815.4
2017-Nov-26 17:30N 37°22' E 025°38'815.6
2017-Nov-26 17:00N 37°18' E 025°29'815.6
2017-Nov-26 16:30N 37°16' E 025°20'816.0
2017-Nov-26 16:00N 37°16' E 025°10'815.1
2017-Nov-26 15:30N 37°14' E 025°00'815.6
2017-Nov-26 15:00N 37°11' E 024°51'815.6
2017-Nov-26 14:30N 37°08' E 024°43'815.5
2017-Nov-26 14:00N 37°04' E 024°34'815.3
2017-Nov-26 13:31N 37°01' E 024°26'815.1
2017-Nov-26 13:00N 36°56' E 024°18'815.8
2017-Nov-26 12:30N 36°52' E 024°09'815.4
2017-Nov-26 12:00N 36°47' E 024°02'815.3
2017-Nov-26 11:31N 36°42' E 023°55'815.3
2017-Nov-26 11:00N 36°36' E 023°49'714.6
2017-Nov-26 10:30N 36°31' E 023°43'815.1
2017-Nov-26 10:00N 36°25' E 023°36'2515.2
2017-Nov-26 08:23N 36°08' E 023°15'42415.3
2017-Nov-25 04:36N 35°33' E 014°34'215.0
2017-Nov-25 04:29N 35°33' E 014°31'715.1
2017-Nov-25 04:00N 35°35' E 014°23'815.4
2017-Nov-25 03:30N 35°39' E 014°15'815.3
2017-Nov-25 03:00N 35°44' E 014°08'815.3
2017-Nov-25 02:30N 35°49' E 014°01'815.3
2017-Nov-25 02:00N 35°54' E 013°54'815.2
2017-Nov-25 01:30N 35°59' E 013°47'815.3
2017-Nov-25 01:00N 36°05' E 013°40'815.4
2017-Nov-25 00:30N 36°10' E 013°33'44615.0
2017-Nov-23 18:44N 37°33' E 004°25'415.7
2017-Nov-23 18:30N 37°33' E 004°21'815.5
2017-Nov-23 18:00N 37°33' E 004°11'815.6
2017-Nov-23 17:30N 37°33' E 004°01'1315.8
2017-Nov-23 16:42N 37°33' E 003°45'10317.4
2017-Nov-23 10:45N 37°26' E 001°35'1815.9
2017-Nov-23 09:36N 37°23' E 001°12'114.8
2017-Nov-23 09:30N 37°22' E 001°11'714.7
2017-Nov-23 09:00N 37°19' E 001°03'2014.0
2017-Nov-23 07:33N 37°09' E 000°40'213.2
2017-Nov-23 07:25N 37°08' E 000°38'613.4
2017-Nov-23 07:00N 37°05' E 000°32'715.2
2017-Nov-23 06:31N 37°02' E 000°24'1716.6
2017-Nov-23 05:29N 36°54' E 000°05'2516.5
2017-Nov-23 03:56N 36°43' W 000°24'716.5
2017-Nov-23 03:31N 36°39' W 000°31'  

Dump ship's entire track history